Wardsville, Missouri
Current Conditions -  °F | °C
As of 6:53 PM on Friday 24 Oct 2014 (Local Time) from KJEF Reporting Station
Clear Clear  
Wind Chill: 69°   Ceiling: Unl
Heat Index: 69°   Visibility: 10mi
Dew Point: 59°   Wind: 6mph
Humidity: 70%   Direction: 100°E
Pressure: 29.98"   Gusts: NA
Location:  38.5003°N, 92.1516°W
Report Text: KJEF 242353Z 10005KT 10SM CLR 21/15 A2998 RMK AO2 SLP143 T02060150 10244 20206 55003
Loading
Personal Weather Stations






























Interactive Weather Map
Tropical Storm Tracking
New forecast layout! Learn more

10-Day Weather Forecast

Advertisements
Track Severe Weather on mobile